createdAt,value
2019-05-13T00:00:18.515Z,103933.15
2019-05-13T00:02:48.072Z,103934.87
2019-05-13T00:05:17.625Z,103939.36
2019-05-13T00:07:47.527Z,103934.45
2019-05-13T00:10:17.062Z,103934.00
2019-05-13T00:12:46.719Z,103934.00
2019-05-13T00:15:16.448Z,103937.17
2019-05-13T00:17:45.987Z,103944.30
2019-05-13T00:20:15.885Z,103942.50
2019-05-13T00:22:45.447Z,103946.99
2019-05-13T00:25:15.353Z,103945.19
2019-05-13T00:27:44.911Z,103950.58
2019-05-13T00:30:14.779Z,103953.72
2019-05-13T00:32:44.848Z,103955.95
2019-05-13T00:35:14.475Z,103955.95
2019-05-13T00:37:44.520Z,103951.94
2019-05-13T00:40:14.671Z,103954.63
2019-05-13T00:42:44.480Z,103954.17
2019-05-13T00:45:14.736Z,103954.63
2019-05-13T00:47:44.364Z,103948.34
2019-05-13T00:50:14.468Z,103948.80
2019-05-13T00:52:45.048Z,103947.91
2019-05-13T00:55:15.061Z,103947.48
2019-05-13T00:57:45.135Z,103952.39
2019-05-13T01:00:14.712Z,103946.14
2019-05-13T01:02:44.904Z,103951.48
2019-05-13T01:05:14.914Z,103951.51
2019-05-13T01:07:45.876Z,103947.02
2019-05-13T01:10:15.458Z,103944.33
2019-05-13T01:12:45.010Z,103949.25
2019-05-13T01:15:14.730Z,103951.51
2019-05-13T01:17:44.894Z,103960.01
2019-05-13T01:20:14.676Z,103951.95
2019-05-13T01:22:44.333Z,103946.58
2019-05-13T01:25:14.628Z,103951.49
2019-05-13T01:27:44.492Z,103947.92
2019-05-13T01:30:14.078Z,103948.81
2019-05-13T01:32:44.865Z,103946.13
2019-05-13T01:35:15.028Z,103955.07
2019-05-13T01:37:46.218Z,103947.05
2019-05-13T01:40:15.972Z,103947.03
2019-05-13T01:42:46.178Z,103946.58
2019-05-13T01:45:16.099Z,103949.72
2019-05-13T01:47:45.652Z,103947.49
2019-05-13T01:50:15.214Z,103947.95
2019-05-13T01:52:44.816Z,103945.23
2019-05-13T01:55:14.780Z,103946.13
2019-05-13T01:57:44.584Z,103947.47
2019-05-13T02:00:14.412Z,103941.67
2019-05-13T02:02:44.718Z,103936.74
2019-05-13T02:05:14.378Z,103946.17
2019-05-13T02:07:57.001Z,103939.88
2019-05-13T02:10:18.186Z,103948.39
2019-05-13T02:12:47.725Z,103944.38
2019-05-13T02:15:17.377Z,103950.20
2019-05-13T02:17:46.918Z,103947.05
2019-05-13T02:20:16.493Z,103938.98
2019-05-13T02:22:46.059Z,103945.27
2019-05-13T02:25:15.596Z,103945.27
2019-05-13T02:27:45.277Z,103942.13
2019-05-13T02:30:16.278Z,103944.82
2019-05-13T02:32:46.311Z,103947.50
2019-05-13T02:35:16.173Z,103949.72
2019-05-13T02:37:45.729Z,103947.96
2019-05-13T02:40:15.281Z,103945.70
2019-05-13T02:42:44.937Z,103946.59
2019-05-13T02:45:14.769Z,103944.82
2019-05-13T02:47:44.581Z,103948.84
2019-05-13T02:50:14.314Z,103953.76
2019-05-13T02:52:44.636Z,103951.54
2019-05-13T02:55:14.281Z,103951.95
2019-05-13T02:57:45.103Z,103953.77
2019-05-13T03:00:14.648Z,103958.67
2019-05-13T03:02:44.787Z,103960.48
2019-05-13T03:05:14.333Z,103963.59
2019-05-13T03:07:43.871Z,103970.77
2019-05-13T03:10:14.025Z,103969.41
2019-05-13T03:12:44.344Z,103970.75
2019-05-13T03:15:14.088Z,103970.75
2019-05-13T03:18:03.466Z,103973.44
2019-05-13T03:20:33.319Z,103971.67
2019-05-13T03:23:03.436Z,103974.78
2019-05-13T03:25:33.517Z,103976.56
2019-05-13T03:28:03.574Z,103977.91
2019-05-13T03:30:35.339Z,103974.80
2019-05-13T03:33:10.706Z,103978.36
2019-05-13T03:35:37.288Z,103977.48
2019-05-13T03:38:07.106Z,103979.73
2019-05-13T03:40:36.675Z,103988.66
2019-05-13T03:43:06.331Z,103987.33
2019-05-13T03:45:35.855Z,103990.47
2019-05-13T03:48:05.397Z,103990.02
2019-05-13T03:50:35.098Z,103994.91
2019-05-13T03:53:04.617Z,103997.60
2019-05-13T03:55:34.168Z,103996.73
2019-05-13T03:58:03.742Z,104000.28
2019-05-13T04:00:33.455Z,103997.18
2019-05-13T04:03:03.637Z,104001.20
2019-05-13T04:05:33.727Z,104004.78
2019-05-13T04:08:03.667Z,104012.38
2019-05-13T04:10:33.640Z,104010.14
2019-05-13T04:13:04.079Z,104008.80
2019-05-13T04:15:33.745Z,104007.00
2019-05-13T04:18:03.318Z,104011.02
2019-05-13T04:20:33.453Z,104015.05
2019-05-13T04:23:03.372Z,104008.36
2019-05-13T04:25:33.290Z,104006.13
2019-05-13T04:28:03.530Z,103990.92
2019-05-13T04:30:33.379Z,103996.73
2019-05-13T04:33:02.970Z,103988.69
2019-05-13T04:35:33.541Z,103992.26
2019-05-13T04:38:04.124Z,103992.72
2019-05-13T04:40:34.526Z,103997.16
2019-05-13T04:43:04.183Z,104000.76
2019-05-13T04:45:33.736Z,103999.41
2019-05-13T04:48:03.728Z,104004.33
2019-05-13T04:50:33.434Z,104004.33
2019-05-13T04:53:03.527Z,104005.68
2019-05-13T04:55:33.623Z,104014.19
2019-05-13T04:58:03.832Z,104015.08
2019-05-13T05:01:26.029Z,104003.45
2019-05-13T05:04:22.646Z,104011.49
2019-05-13T05:06:55.214Z,104009.72
2019-05-13T05:10:16.858Z,104019.99
2019-05-13T05:13:15.637Z,104017.30
2019-05-13T05:16:02.891Z,104016.88
2019-05-13T05:19:02.083Z,104020.45
2019-05-13T05:21:36.994Z,104016.88
2019-05-13T05:24:37.209Z,104017.30
2019-05-13T05:27:42.651Z,104012.85
2019-05-13T05:30:41.171Z,104022.24
2019-05-13T05:33:33.146Z,104024.92
2019-05-13T05:36:46.289Z,104018.66
2019-05-13T05:39:22.662Z,104016.41
2019-05-13T05:41:54.732Z,104015.98
2019-05-13T05:44:26.245Z,104018.20
2019-05-13T05:46:56.782Z,104019.57
2019-05-13T05:49:26.663Z,104024.48
2019-05-13T05:52:04.766Z,104028.50
2019-05-13T05:54:35.495Z,104032.53
2019-05-13T05:57:06.292Z,104035.20
2019-05-13T05:59:37.014Z,104044.61
2019-05-13T06:02:07.400Z,104043.73
2019-05-13T06:04:36.937Z,104040.60
2019-05-13T06:07:06.514Z,104041.48
2019-05-13T06:09:36.052Z,104035.22
2019-05-13T06:12:05.610Z,104032.99
2019-05-13T06:14:35.197Z,104036.13
2019-05-13T06:17:05.091Z,104037.46
2019-05-13T06:19:34.679Z,104037.02
2019-05-13T06:22:04.258Z,104034.34
2019-05-13T06:24:33.808Z,104041.50
2019-05-13T06:27:03.388Z,104044.19
2019-05-13T06:29:33.367Z,104041.94
2019-05-13T06:32:17.547Z,104037.00
2019-05-13T06:34:34.619Z,104042.84
2019-05-13T06:37:04.160Z,104042.83
2019-05-13T06:39:33.786Z,104042.81
2019-05-13T06:42:03.361Z,104041.91
2019-05-13T06:44:32.937Z,104036.98
2019-05-13T06:47:02.983Z,104027.61
2019-05-13T06:49:32.790Z,104030.71
2019-05-13T06:52:02.388Z,104035.17
2019-05-13T06:54:33.034Z,104034.28
2019-05-13T06:57:05.172Z,104026.66
2019-05-13T06:59:34.288Z,104033.37
2019-05-13T07:02:04.015Z,104032.93
2019-05-13T07:04:33.564Z,104036.53
2019-05-13T07:07:12.256Z,104032.03
2019-05-13T07:09:35.693Z,104032.02
2019-05-13T07:12:05.226Z,104036.05
2019-05-13T07:14:34.780Z,104042.30
2019-05-13T07:17:04.613Z,104040.03
2019-05-13T07:19:34.150Z,104037.78
2019-05-13T07:22:03.724Z,104039.57
2019-05-13T07:24:33.299Z,104039.55
2019-05-13T07:27:02.852Z,104035.50
2019-05-13T07:29:32.821Z,104036.85
2019-05-13T07:32:02.403Z,104040.41
2019-05-13T07:34:33.540Z,104050.25
2019-05-13T07:37:04.832Z,104051.12
2019-05-13T07:39:34.680Z,104046.64
2019-05-13T07:42:05.920Z,104051.10
2019-05-13T07:44:35.528Z,104048.84
2019-05-13T07:47:05.092Z,104055.55
2019-05-13T07:49:34.651Z,104052.41
2019-05-13T07:52:04.530Z,104056.44
2019-05-13T07:54:34.072Z,104051.50
2019-05-13T07:57:03.682Z,104060.88
2019-05-13T07:59:33.588Z,104052.36
2019-05-13T08:02:03.224Z,104061.31
2019-05-13T08:04:33.725Z,104059.95
2019-05-13T08:07:03.311Z,104062.19
2019-05-13T08:09:33.137Z,104063.07
2019-05-13T08:12:09.899Z,104065.73
2019-05-13T08:14:34.846Z,104065.28
2019-05-13T08:17:04.357Z,104065.72
2019-05-13T08:19:33.914Z,104071.98
2019-05-13T08:22:03.560Z,104076.51
2019-05-13T08:24:33.479Z,104069.30
2019-05-13T08:27:03.025Z,104072.42
2019-05-13T08:29:33.115Z,104071.54
2019-05-13T08:32:03.271Z,104066.62
2019-05-13T08:34:33.317Z,104062.55
2019-05-13T08:37:03.404Z,104061.19
2019-05-13T08:39:38.163Z,104067.48
2019-05-13T08:42:15.138Z,104070.59
2019-05-13T08:44:35.851Z,104068.33
2019-05-13T08:47:05.712Z,104074.60
2019-05-13T08:49:35.267Z,104072.80
2019-05-13T08:52:04.847Z,104077.30
2019-05-13T08:54:34.397Z,104078.64
2019-05-13T08:57:03.957Z,104079.07
2019-05-13T08:59:33.571Z,104073.69
2019-05-13T09:02:03.544Z,104063.39
2019-05-13T09:04:33.503Z,104064.73
2019-05-13T09:07:03.369Z,104065.16
2019-05-13T09:09:33.233Z,104064.73
2019-05-13T09:12:03.232Z,104063.84
2019-05-13T09:14:32.819Z,104065.20
2019-05-13T09:17:03.073Z,104064.30
2019-05-13T09:19:32.724Z,104066.99
2019-05-13T09:22:03.411Z,104064.76
2019-05-13T09:24:37.568Z,104067.48
2019-05-13T09:27:04.671Z,104063.89
2019-05-13T09:29:34.234Z,104064.36
2019-05-13T09:32:04.270Z,104067.50
2019-05-13T09:34:34.351Z,104067.95
2019-05-13T09:37:04.008Z,104066.18
2019-05-13T09:39:33.562Z,104066.17
2019-05-13T09:42:03.816Z,104071.98
2019-05-13T09:44:33.937Z,104069.33
2019-05-13T09:47:03.518Z,104070.20
2019-05-13T09:49:33.409Z,104071.55
2019-05-13T09:52:03.239Z,104067.97
2019-05-13T09:54:33.318Z,104060.36
2019-05-13T09:57:03.047Z,104059.94
2019-05-13T09:59:32.606Z,104059.47
2019-05-13T10:02:03.332Z,104063.05
2019-05-13T10:04:33.323Z,104061.27
2019-05-13T10:07:02.955Z,104052.75
2019-05-13T10:09:33.021Z,104060.41
2019-05-13T10:12:03.611Z,104055.94
2019-05-13T10:14:33.767Z,104060.89
2019-05-13T10:17:06.544Z,104050.56
2019-05-13T10:19:34.643Z,104057.28
2019-05-13T10:22:04.245Z,104056.39
2019-05-13T10:24:33.837Z,104048.36
2019-05-13T10:27:03.391Z,104045.23
2019-05-13T10:29:32.950Z,104049.72
2019-05-13T10:32:03.720Z,104047.03
2019-05-13T10:34:34.219Z,104044.34
2019-05-13T10:37:03.762Z,104039.87
2019-05-13T10:39:33.654Z,104044.81
2019-05-13T10:42:03.884Z,104043.47
2019-05-13T10:44:33.653Z,104046.61
2019-05-13T10:47:03.210Z,104043.04
2019-05-13T10:49:33.414Z,104042.12
2019-05-13T10:52:03.441Z,104043.04
2019-05-13T10:54:33.257Z,104036.32
2019-05-13T10:57:04.041Z,104030.52
2019-05-13T10:59:34.210Z,104026.48
2019-05-13T11:02:03.788Z,104031.41
2019-05-13T11:04:33.375Z,104021.53
2019-05-13T11:07:03.336Z,104016.63
2019-05-13T11:09:32.985Z,104014.39
2019-05-13T11:12:04.382Z,104007.67
2019-05-13T11:14:33.941Z,104003.64
2019-05-13T11:17:03.594Z,104000.06
2019-05-13T11:19:36.784Z,103996.47
2019-05-13T11:22:04.737Z,104007.22
2019-05-13T11:24:34.328Z,104007.67
2019-05-13T11:27:03.899Z,104007.21
2019-05-13T11:29:34.141Z,104006.75
2019-05-13T11:32:03.690Z,104008.09
2019-05-13T11:34:33.293Z,104010.81
2019-05-13T11:37:03.868Z,104004.09
2019-05-13T11:39:33.752Z,104000.08
2019-05-13T11:42:03.295Z,103987.08
2019-05-13T11:44:32.848Z,103989.34
2019-05-13T11:47:03.119Z,103986.20
2019-05-13T11:49:32.754Z,103972.76
2019-05-13T11:52:02.843Z,103981.25
2019-05-13T11:54:33.073Z,103976.33
2019-05-13T11:57:06.323Z,103975.91
2019-05-13T11:59:33.988Z,103979.02
2019-05-13T12:02:04.739Z,103975.90
2019-05-13T12:04:35.135Z,103982.63
2019-05-13T12:07:04.810Z,103977.25
2019-05-13T12:09:34.727Z,103971.42
2019-05-13T12:12:04.298Z,103970.95
2019-05-13T12:14:44.367Z,103967.38
2019-05-13T12:17:05.419Z,103964.73
2019-05-13T12:19:34.983Z,103971.44
2019-05-13T12:22:04.530Z,103966.92
2019-05-13T12:24:34.125Z,103967.84
2019-05-13T12:27:04.042Z,103968.72
2019-05-13T12:29:35.294Z,103967.84
2019-05-13T12:32:04.871Z,103977.24
2019-05-13T12:34:40.377Z,103950.38
2019-05-13T12:37:05.675Z,103955.75
2019-05-13T12:39:35.245Z,103962.01
2019-05-13T12:42:05.142Z,103959.32
2019-05-13T12:44:59.354Z,103960.66
2019-05-13T12:47:06.237Z,103954.83
2019-05-13T12:49:36.833Z,103958.86
2019-05-13T12:52:06.539Z,103959.78
2019-05-13T12:54:36.090Z,103957.09
2019-05-13T12:57:11.817Z,103956.63
2019-05-13T12:59:36.963Z,103949.48
2019-05-13T13:02:06.530Z,103949.91
2019-05-13T13:04:36.440Z,103933.34
2019-05-13T13:07:06.091Z,103936.91
2019-05-13T13:09:35.724Z,103934.68
2019-05-13T13:12:05.244Z,103939.17
2019-05-13T13:14:39.230Z,103932.45
2019-05-13T13:17:06.048Z,103929.30
2019-05-13T13:19:35.747Z,103931.99
2019-05-13T13:22:07.878Z,103924.82
2019-05-13T13:24:36.856Z,103924.84
2019-05-13T13:27:14.811Z,103925.27
2019-05-13T13:29:38.222Z,103916.78
2019-05-13T13:32:07.790Z,103922.16
2019-05-13T13:34:37.342Z,103916.36
2019-05-13T13:37:06.838Z,103910.07
2019-05-13T13:39:36.806Z,103912.75
2019-05-13T13:42:06.999Z,103910.07
2019-05-13T13:44:36.544Z,103910.95
2019-05-13T13:47:06.121Z,103906.04
2019-05-13T13:49:36.143Z,103900.20
2019-05-13T13:52:05.718Z,103910.49
2019-05-13T13:54:35.683Z,103906.01
2019-05-13T13:57:05.234Z,103897.52
2019-05-13T13:59:35.903Z,103902.89
2019-05-13T14:02:05.959Z,103903.35
2019-05-13T14:04:35.561Z,103899.32
2019-05-13T14:07:22.216Z,103897.06
2019-05-13T14:09:36.708Z,103893.95
2019-05-13T14:12:06.257Z,103899.29
2019-05-13T14:14:35.814Z,103894.80
2019-05-13T14:17:05.395Z,103896.15
2019-05-13T14:19:35.008Z,103902.84
2019-05-13T14:22:04.655Z,103890.74
2019-05-13T14:24:34.246Z,103884.48
2019-05-13T14:27:03.839Z,103885.34
2019-05-13T14:29:40.497Z,103874.62
2019-05-13T14:32:04.836Z,103886.25
2019-05-13T14:34:34.378Z,103875.50
2019-05-13T14:37:03.932Z,103875.50
2019-05-13T14:39:36.099Z,103876.84
2019-05-13T14:42:04.777Z,103865.67
2019-05-13T14:44:34.585Z,103871.93
2019-05-13T14:47:04.162Z,103863.44
2019-05-13T14:49:33.729Z,103864.78
2019-05-13T14:52:03.315Z,103860.75
2019-05-13T14:54:33.853Z,103850.43
2019-05-13T14:57:03.408Z,103849.09
2019-05-13T14:59:32.966Z,103849.09
2019-05-13T15:02:02.539Z,103856.69
2019-05-13T15:04:32.735Z,103849.52
2019-05-13T15:07:02.410Z,103841.45
2019-05-13T15:09:32.229Z,103837.42
2019-05-13T15:12:02.390Z,103849.52
2019-05-13T15:14:32.111Z,103839.22
2019-05-13T15:17:06.389Z,103838.73
2019-05-13T15:19:33.053Z,103844.11
2019-05-13T15:22:02.815Z,103841.42
2019-05-13T15:24:32.532Z,103834.73
2019-05-13T15:27:02.195Z,103834.27
2019-05-13T15:29:31.773Z,103834.27
2019-05-13T15:32:02.177Z,103832.02
2019-05-13T15:34:32.151Z,103827.55
2019-05-13T15:37:02.258Z,103825.72
2019-05-13T15:39:31.813Z,103828.41
2019-05-13T15:42:02.143Z,103828.87
2019-05-13T15:44:32.811Z,103828.41
2019-05-13T15:47:18.216Z,103833.78
2019-05-13T15:49:33.802Z,103828.87
2019-05-13T15:52:03.362Z,103828.41
2019-05-13T15:54:33.281Z,103826.64
2019-05-13T15:57:03.154Z,103819.03
2019-05-13T15:59:32.773Z,103814.08
2019-05-13T16:02:02.713Z,103821.26
2019-05-13T16:04:32.599Z,103824.41
2019-05-13T16:07:02.197Z,103820.84
2019-05-13T16:09:31.744Z,103815.00
2019-05-13T16:12:01.714Z,103807.40
2019-05-13T16:14:31.735Z,103810.94
2019-05-13T16:17:01.381Z,103808.28
2019-05-13T16:19:32.706Z,103809.63
2019-05-13T16:22:02.481Z,103809.20
2019-05-13T16:24:32.650Z,103804.71
2019-05-13T16:27:03.314Z,103809.66
2019-05-13T16:29:32.922Z,103797.56
2019-05-13T16:32:02.783Z,103802.48
2019-05-13T16:34:32.400Z,103799.34
2019-05-13T16:37:02.671Z,103794.88
2019-05-13T16:39:32.371Z,103796.65
2019-05-13T16:42:01.968Z,103791.27
2019-05-13T16:44:31.993Z,103796.19
2019-05-13T16:47:02.371Z,103795.73
2019-05-13T16:49:32.256Z,103793.04
2019-05-13T16:52:02.499Z,103800.19
2019-05-13T16:54:33.074Z,103796.16
2019-05-13T16:57:02.888Z,103804.67
2019-05-13T16:59:32.545Z,103786.78
2019-05-13T17:02:02.145Z,103793.04
2019-05-13T17:04:32.178Z,103783.64
2019-05-13T17:07:02.411Z,103785.86
2019-05-13T17:09:32.439Z,103780.06
2019-05-13T17:12:02.273Z,103775.61
2019-05-13T17:14:32.434Z,103780.48
2019-05-13T17:17:02.387Z,103780.03
2019-05-13T17:19:32.005Z,103781.83
2019-05-13T17:22:02.499Z,103776.91
2019-05-13T17:24:32.253Z,103782.30
2019-05-13T17:27:02.756Z,103778.26
2019-05-13T17:29:32.587Z,103776.91
2019-05-13T17:32:02.607Z,103781.83
2019-05-13T17:34:51.536Z,103776.00
2019-05-13T17:37:22.089Z,103781.38
2019-05-13T17:39:51.784Z,103783.59
2019-05-13T17:42:21.603Z,103783.59
2019-05-13T17:44:51.692Z,103776.91
2019-05-13T17:47:21.897Z,103778.69
2019-05-13T17:49:52.251Z,103776.91
2019-05-13T17:52:22.251Z,103779.14
2019-05-13T17:54:51.945Z,103779.61
2019-05-13T17:57:21.802Z,103775.56
2019-05-13T17:59:52.169Z,103777.34
2019-05-13T18:02:21.827Z,103773.77
2019-05-13T18:04:52.129Z,103776.88
2019-05-13T18:07:21.833Z,103771.50
2019-05-13T18:09:51.995Z,103779.56
2019-05-13T18:12:22.408Z,103775.53
2019-05-13T18:14:52.039Z,103772.38
2019-05-13T18:17:21.707Z,103775.08
2019-05-13T18:19:51.664Z,103775.08
2019-05-13T18:22:21.217Z,103770.16
2019-05-13T18:24:51.860Z,103769.23
2019-05-13T18:27:22.223Z,103770.58
2019-05-13T18:29:51.974Z,103773.73
2019-05-13T18:32:21.787Z,103771.50
2019-05-13T18:34:51.380Z,103767.47
2019-05-13T18:37:22.137Z,103761.17
2019-05-13T18:39:52.236Z,103769.70
2019-05-13T18:42:22.489Z,103772.81
2019-05-13T18:44:52.156Z,103766.13
2019-05-13T18:47:22.223Z,103767.47
2019-05-13T18:49:51.924Z,103766.13
2019-05-13T18:52:22.357Z,103761.21
2019-05-13T18:54:52.049Z,103769.27
2019-05-13T18:57:21.758Z,103762.55
2019-05-13T18:59:52.022Z,103756.27
2019-05-13T19:02:22.085Z,103757.18
2019-05-13T19:04:52.249Z,103761.21
2019-05-13T19:07:22.227Z,103760.30
2019-05-13T19:09:52.319Z,103767.47
2019-05-13T19:12:23.005Z,103766.13
2019-05-13T19:15:11.537Z,103771.92
2019-05-13T19:17:59.164Z,103774.65
2019-05-13T19:20:28.733Z,103784.48
2019-05-13T19:23:01.017Z,103781.38
2019-05-13T19:25:31.422Z,103783.59
2019-05-13T19:28:02.359Z,103775.53
2019-05-13T19:30:32.177Z,103778.68
2019-05-13T19:33:01.791Z,103779.56
2019-05-13T19:35:32.241Z,103780.02
2019-05-13T19:38:02.052Z,103785.86
2019-05-13T19:40:31.658Z,103784.06
2019-05-13T19:43:01.599Z,103787.20
2019-05-13T19:45:32.301Z,103793.00
2019-05-13T19:48:02.041Z,103786.75
2019-05-13T19:50:31.904Z,103787.62
2019-05-13T19:53:01.582Z,103799.77
2019-05-13T19:55:33.788Z,103800.19
2019-05-13T19:58:02.480Z,103795.23
2019-05-13T20:00:32.075Z,103792.13
2019-05-13T20:03:01.648Z,103797.92
2019-05-13T20:05:31.771Z,103799.72
2019-05-13T20:08:01.596Z,103802.41
2019-05-13T20:10:31.517Z,103807.36
2019-05-13T20:13:01.880Z,103808.70
2019-05-13T20:15:31.616Z,103809.16
2019-05-13T20:18:01.497Z,103807.83
2019-05-13T20:20:31.702Z,103805.56
2019-05-13T20:23:01.994Z,103813.20
2019-05-13T20:25:31.575Z,103814.08
2019-05-13T20:28:02.324Z,103813.16
2019-05-13T20:30:32.152Z,103805.56
2019-05-13T20:33:02.330Z,103806.02
2019-05-13T20:35:32.270Z,103804.22
2019-05-13T20:38:02.282Z,103806.02
2019-05-13T20:40:32.328Z,103801.10
2019-05-13T20:43:02.132Z,103803.80
2019-05-13T20:45:31.684Z,103793.96
2019-05-13T20:48:01.546Z,103793.50
2019-05-13T20:50:31.763Z,103789.93
2019-05-13T20:53:01.486Z,103787.24
2019-05-13T20:55:32.111Z,103782.75
2019-05-13T20:58:02.184Z,103787.67
2019-05-13T21:00:31.836Z,103778.72
2019-05-13T21:03:02.831Z,103780.95
2019-05-13T21:05:32.607Z,103782.75
2019-05-13T21:08:02.191Z,103785.02
2019-05-13T21:10:31.770Z,103789.02
2019-05-13T21:13:01.866Z,103781.41
2019-05-13T21:15:31.813Z,103777.83
2019-05-13T21:18:02.066Z,103780.52
2019-05-13T21:20:32.131Z,103785.44
2019-05-13T21:23:02.260Z,103778.27
2019-05-13T21:25:31.999Z,103775.58
2019-05-13T21:28:02.112Z,103781.41
2019-05-13T21:30:31.841Z,103777.38
2019-05-13T21:33:02.222Z,103770.23
2019-05-13T21:35:32.044Z,103771.54
2019-05-13T21:38:01.825Z,103767.09
2019-05-13T21:40:32.138Z,103766.20
2019-05-13T21:43:01.799Z,103768.86
2019-05-13T21:45:31.434Z,103765.28
2019-05-13T21:48:01.653Z,103759.48
2019-05-13T21:50:36.954Z,103767.09
2019-05-13T21:53:02.806Z,103772.50
2019-05-13T21:55:32.360Z,103773.38
2019-05-13T21:58:03.273Z,103776.99
2019-05-13T22:00:41.706Z,103772.96
2019-05-13T22:03:11.651Z,103772.96
2019-05-13T22:05:41.744Z,103774.77
2019-05-13T22:08:12.186Z,103769.84
2019-05-13T22:10:41.842Z,103772.08
2019-05-13T22:13:11.827Z,103779.25
2019-05-13T22:15:41.717Z,103781.94
2019-05-13T22:18:11.456Z,103781.94
2019-05-13T22:20:49.703Z,103777.03
2019-05-13T22:23:12.614Z,103766.31
2019-05-13T22:25:43.799Z,103766.31
2019-05-13T22:28:13.503Z,103762.70
2019-05-13T22:30:43.135Z,103769.46
2019-05-13T22:33:12.679Z,103773.95
2019-05-13T22:35:42.329Z,103777.52
2019-05-13T22:38:12.384Z,103773.06
2019-05-13T22:40:42.494Z,103770.80
2019-05-13T22:43:12.369Z,103777.52
2019-05-13T22:45:42.231Z,103769.00
2019-05-13T22:48:14.868Z,103766.31
2019-05-13T22:50:43.271Z,103771.72
2019-05-13T22:53:12.855Z,103765.43
2019-05-13T22:55:42.386Z,103770.84
2019-05-13T22:58:11.925Z,103773.95
2019-05-13T23:00:42.366Z,103770.80
2019-05-13T23:03:11.979Z,103765.47
2019-05-13T23:05:41.705Z,103767.27
2019-05-13T23:08:11.427Z,103769.04
2019-05-13T23:10:42.081Z,103771.76
2019-05-13T23:13:12.256Z,103773.98
2019-05-13T23:15:41.800Z,103773.56
2019-05-13T23:18:11.829Z,103776.25
2019-05-13T23:20:42.210Z,103771.79
2019-05-13T23:23:12.090Z,103777.16
2019-05-13T23:25:43.184Z,103772.71
2019-05-13T23:28:13.254Z,103772.70
2019-05-13T23:30:43.116Z,103772.28
2019-05-13T23:33:12.662Z,103771.39
2019-05-13T23:35:42.516Z,103772.74
2019-05-13T23:38:12.081Z,103761.54
2019-05-13T23:40:42.141Z,103762.91
2019-05-13T23:43:11.798Z,103761.57
2019-05-13T23:45:41.790Z,103768.28
2019-05-13T23:48:11.366Z,103765.63
2019-05-13T23:50:41.520Z,103768.28
2019-05-13T23:53:11.218Z,103762.48
2019-05-13T23:55:41.366Z,103762.48
2019-05-13T23:58:12.226Z,103765.17
